Time;durP1;ratioP1;P1;durP2;ratioP2;P2;SDS_P1;SDS_P2;PMS_P1;PMS_P2;Temp;Humidity;BMP_temperature;BMP_pressure;BME280_temperature;BME280_humidity;BME280_pressure;Samples;Min_cycle;Max_cycle;Signal;HPM_P1;HPM_P2
2022/11/13 00:00:53;;;;;;;114.12;54.75;;;;;;;0.43;100.00;99609.28;1714259;83;21451;-81
2022/11/13 00:03:22;;;;;;;93.05;50.63;;;;;;;0.52;100.00;99602.88;1714165;82;20963;-81
2022/11/13 00:06:00;;;;;;;93.17;49.83;;;;;;;0.59;100.00;99598.98;1714297;83;20987;-81
2022/11/13 00:08:27;;;;;;;102.97;49.33;;;;;;;0.59;100.00;99600.81;1714447;83;21439;-81
2022/11/13 00:11:03;;;;;;;94.70;46.15;;;;;;;0.51;100.00;99599.89;1719578;83;20968;-81
2022/11/13 00:13:30;;;;;;;97.00;47.67;;;;;;;0.50;100.00;99603.54;1719148;83;20953;-78
2022/11/13 00:15:59;;;;;;;108.67;49.75;;;;;;;0.48;100.00;99606.89;1719341;83;21472;-82
2022/11/13 00:18:28;;;;;;;105.07;49.25;;;;;;;0.46;100.00;99600.08;1719382;83;20982;-78
2022/11/13 00:20:57;;;;;;;106.85;53.05;;;;;;;0.39;100.00;99600.45;1719373;83;20980;-82
2022/11/13 00:23:24;;;;;;;107.40;51.18;;;;;;;0.25;100.00;99601.52;1719122;83;21059;-81
2022/11/13 00:25:51;;;;;;;103.55;47.67;;;;;;;0.17;100.00;99600.73;1719457;83;21016;-81
2022/11/13 00:28:17;;;;;;;83.90;40.48;;;;;;;0.10;100.00;99597.95;1719198;83;21063;-78
2022/11/13 00:30:44;;;;;;;87.80;42.65;;;;;;;0.08;100.00;99593.77;1718739;83;21705;-78
2022/11/13 00:33:11;;;;;;;84.07;39.98;;;;;;;0.01;100.00;99598.16;1714123;83;21439;-78
2022/11/13 00:35:38;;;;;;;90.53;37.93;;;;;;;0.01;100.00;99598.16;1714332;83;21022;-78
2022/11/13 00:38:05;;;;;;;74.22;37.45;;;;;;;0.02;100.00;99593.16;1714052;83;21447;-81
2022/11/13 00:40:32;;;;;;;77.92;35.80;;;;;;;-0.03;100.00;99595.00;1714058;83;20979;-78
2022/11/13 00:42:59;;;;;;;82.67;40.58;;;;;;;-0.07;100.00;99597.70;1714245;83;21166;-78
2022/11/13 00:45:26;;;;;;;92.10;43.33;;;;;;;-0.12;100.00;99599.53;1714238;83;21408;-81
2022/11/13 00:47:53;;;;;;;80.85;38.48;;;;;;;-0.14;100.00;99592.72;1714190;83;20992;-81
2022/11/13 00:50:19;;;;;;;85.60;42.80;;;;;;;-0.18;100.00;99592.72;1714318;83;21022;-79
2022/11/13 00:52:46;;;;;;;96.90;43.13;;;;;;;-0.22;100.00;99592.25;1714154;83;20972;-78
2022/11/13 00:55:13;;;;;;;78.35;37.45;;;;;;;-0.22;100.00;99590.09;1714382;83;21721;-81
2022/11/13 00:57:40;;;;;;;81.10;41.70;;;;;;;-0.22;100.00;99588.25;1714219;82;20975;-78
2022/11/13 01:00:09;;;;;;;79.17;40.78;;;;;;;-0.22;100.00;99584.77;1714166;83;20999;-78
2022/11/13 01:02:36;;;;;;;107.83;47.38;;;;;;;-0.26;100.00;99577.59;1714130;83;27386;-82
2022/11/13 01:05:03;;;;;;;86.67;43.33;;;;;;;-0.30;100.00;99576.29;1714008;83;20971;-81
2022/11/13 01:07:30;;;;;;;83.62;42.85;;;;;;;-0.31;100.00;99575.47;1714051;83;20988;-78
2022/11/13 01:09:58;;;;;;;73.70;38.65;;;;;;;-0.36;100.00;99582.30;1713140;83;21257;-78
2022/11/13 01:12:25;;;;;;;79.23;37.70;;;;;;;-0.36;100.00;99576.47;1712873;82;21133;-81
2022/11/13 01:14:52;;;;;;;81.82;39.03;;;;;;;-0.40;100.00;99568.50;1712571;83;22129;-81
2022/11/13 01:17:19;;;;;;;77.65;36.13;;;;;;;-0.43;100.00;99570.16;1712605;82;21013;-79
2022/11/13 01:19:46;;;;;;;77.45;37.67;;;;;;;-0.46;100.00;99566.52;1712656;83;20958;-81
2022/11/13 01:22:13;;;;;;;70.45;33.75;;;;;;;-0.47;100.00;99562.20;1712493;82;20971;-81
2022/11/13 01:24:40;;;;;;;65.97;32.30;;;;;;;-0.47;100.00;99568.86;1712646;83;21046;-78
2022/11/13 01:27:07;;;;;;;73.10;33.33;;;;;;;-0.47;100.00;99558.20;1712555;82;20987;-82
2022/11/13 01:29:34;;;;;;;68.85;33.13;;;;;;;-0.47;100.00;99556.04;1712736;83;21660;-81
2022/11/13 01:32:00;;;;;;;60.30;32.90;;;;;;;-0.49;100.00;99558.05;1713538;83;21200;-80
2022/11/13 01:34:27;;;;;;;74.60;35.35;;;;;;;-0.49;100.00;99568.70;1713818;83;21006;-78
2022/11/13 01:36:54;;;;;;;68.00;32.65;;;;;;;-0.46;100.00;99564.36;1714262;83;21046;-78
2022/11/13 01:39:21;;;;;;;69.85;35.38;;;;;;;-0.43;100.00;99562.17;1713742;83;21015;-81
2022/11/13 01:41:48;;;;;;;68.65;30.52;;;;;;;-0.37;100.00;99556.66;1714351;83;21038;-80
2022/11/13 01:44:16;;;;;;;61.45;31.70;;;;;;;-0.38;100.00;99556.34;1714101;83;20963;-81
2022/11/13 01:46:52;;;;;;;56.73;29.80;;;;;;;-0.40;100.00;99555.19;1714420;82;20947;-81
2022/11/13 01:49:30;;;;;;;54.45;29.02;;;;;;;-0.41;100.00;99551.37;1713925;83;21003;-81
2022/11/13 01:52:00;;;;;;;61.98;29.80;;;;;;;-0.39;100.00;99549.36;1714348;83;20964;-79
2022/11/13 01:54:35;;;;;;;68.65;33.85;;;;;;;-0.40;100.00;99555.69;1713974;82;20975;-78
2022/11/13 01:57:02;;;;;;;39.38;20.52;;;;;;;-0.40;100.00;99553.02;1714219;82;21034;-81
2022/11/13 01:59:33;;;;;;;65.00;34.85;;;;;;;-0.39;100.00;99550.19;1703624;83;21038;-78
2022/11/13 02:02:00;;;;;;;60.63;34.08;;;;;;;-0.36;100.00;99561.81;1714266;83;21031;-81
2022/11/13 02:04:27;;;;;;;68.15;31.77;;;;;;;-0.37;100.00;99560.16;1714046;83;21361;-78
2022/11/13 02:07:00;;;;;;;62.00;31.15;;;;;;;-0.43;100.00;99557.34;1714353;83;20978;-79
2022/11/13 02:09:36;;;;;;;73.65;35.98;;;;;;;-0.54;100.00;99553.23;1716552;83;21164;-82
2022/11/13 02:12:07;;;;;;;68.15;34.95;;;;;;;-0.53;100.00;99550.89;1719343;83;21008;-80
2022/11/13 02:14:34;;;;;;;70.62;33.92;;;;;;;-0.59;100.00;99552.92;1691258;83;20972;-77
2022/11/13 02:17:05;;;;;;;74.50;33.78;;;;;;;-0.61;100.00;99546.92;1719510;83;21397;-80
2022/11/13 02:19:38;;;;;;;78.17;34.70;;;;;;;-0.60;100.00;99544.58;1719255;83;20984;-82
2022/11/13 02:22:29;;;;;;;70.60;36.25;;;;;;;-0.60;100.00;99544.58;1719470;83;20953;-82
2022/11/13 02:24:57;;;;;;;64.30;32.13;;;;;;;-0.59;100.00;99542.28;1719526;83;20953;-77
2022/11/13 02:27:43;;;;;;;63.77;32.37;;;;;;;-0.65;100.00;99550.44;1719624;83;21194;-78
2022/11/13 02:30:28;;;;;;;69.75;34.30;;;;;;;-0.63;100.00;99548.92;1719443;83;21344;-78
2022/11/13 02:32:56;;;;;;;57.35;30.05;;;;;;;-0.63;100.00;99548.92;1685649;83;21008;-82
2022/11/13 02:35:32;;;;;;;75.20;38.98;;;;;;;-0.62;100.00;99545.26;1702028;83;21014;-78
2022/11/13 02:38:03;;;;;;;66.25;33.02;;;;;;;-0.64;100.00;99548.60;1714064;82;21041;-81
2022/11/13 02:40:31;;;;;;;67.08;35.30;;;;;;;-0.64;100.00;99555.26;1704066;83;21035;-81
2022/11/13 02:42:58;;;;;;;63.90;31.85;;;;;;;-0.62;100.00;99547.92;1714213;82;21491;-78
2022/11/13 02:45:25;;;;;;;64.62;32.00;;;;;;;-0.64;100.00;99548.60;1714185;82;21046;-82
2022/11/13 02:47:51;;;;;;;60.52;30.57;;;;;;;-0.63;100.00;99550.26;1714088;82;21161;-81
2022/11/13 02:50:18;;;;;;;56.18;30.50;;;;;;;-0.64;100.00;99547.27;1714206;83;20978;-81
2022/11/13 02:52:45;;;;;;;61.63;34.27;;;;;;;-0.65;100.00;99546.94;1714003;82;20983;-78
2022/11/13 02:55:12;;;;;;;68.33;33.50;;;;;;;-0.63;100.00;99546.27;1714354;83;21010;-78
2022/11/13 02:57:39;;;;;;;66.10;29.55;;;;;;;-0.65;100.00;99545.11;1714260;82;21519;-78
2022/11/13 03:00:08;;;;;;;59.70;28.83;;;;;;;-0.64;100.00;99544.10;1714018;83;21406;-81
2022/11/13 03:02:35;;;;;;;64.27;30.85;;;;;;;-0.62;100.00;99534.11;1714241;82;21506;-78
2022/11/13 03:05:02;;;;;;;62.88;31.57;;;;;;;-0.68;100.00;99549.45;1714236;83;20986;-81
2022/11/13 03:07:29;;;;;;;65.17;30.85;;;;;;;-0.66;100.00;99538.63;1714171;82;21026;-81
2022/11/13 03:09:56;;;;;;;56.35;28.23;;;;;;;-0.63;100.00;99546.27;1696376;83;21009;-81
2022/11/13 03:12:23;;;;;;;48.05;22.32;;;;;;;-0.64;100.00;99543.28;1712812;82;21010;-81
2022/11/13 03:14:50;;;;;;;41.70;23.62;;;;;;;-0.59;100.00;99542.28;1712374;83;20982;-83
2022/11/13 03:17:17;;;;;;;47.15;24.15;;;;;;;-0.64;100.00;99546.77;1712809;82;21387;-81
2022/11/13 03:19:44;;;;;;;52.55;25.82;;;;;;;-0.64;100.00;99548.09;1712557;83;21006;-80
2022/11/13 03:22:11;;;;;;;49.25;25.60;;;;;;;-0.60;100.00;99540.59;1712762;82;20978;-84
2022/11/13 03:24:38;;;;;;;54.55;27.70;;;;;;;-0.59;100.00;99546.27;1712548;83;21062;-81
2022/11/13 03:27:04;;;;;;;52.17;26.07;;;;;;;-0.62;100.00;99546.59;1712700;82;21074;-84
2022/11/13 03:29:31;;;;;;;49.70;24.87;;;;;;;-0.60;100.00;99539.25;1712449;83;21493;-80
2022/11/13 03:31:58;;;;;;;54.42;28.52;;;;;;;-0.65;100.00;99542.45;1713678;83;21003;-84
2022/11/13 03:34:25;;;;;;;46.60;23.73;;;;;;;-0.68;100.00;99542.80;1713981;83;20979;-80
2022/11/13 03:36:52;;;;;;;50.55;27.85;;;;;;;-0.67;100.00;99544.95;1714291;83;20991;-80
2022/11/13 03:39:19;;;;;;;53.58;28.45;;;;;;;-0.69;100.00;99550.42;1713903;83;21015;-80
2022/11/13 03:41:46;;;;;;;53.33;29.77;;;;;;;-0.71;100.00;99544.95;1714256;83;21403;-84
2022/11/13 03:44:13;;;;;;;52.03;25.85;;;;;;;-0.72;100.00;99551.28;1713956;83;20975;-80
2022/11/13 03:46:39;;;;;;;47.25;23.45;;;;;;;-0.69;100.00;99548.27;1714063;83;21007;-82
2022/11/13 03:49:06;;;;;;;63.13;25.80;;;;;;;-0.70;100.00;99549.27;1714034;83;21642;-80
2022/11/13 03:51:33;;;;;;;51.33;24.12;;;;;;;-0.71;100.00;99550.28;1714154;82;21412;-84
2022/11/13 03:54:00;;;;;;;52.15;24.47;;;;;;;-0.74;100.00;99545.30;1714060;83;20975;-80
2022/11/13 03:56:27;;;;;;;47.53;25.68;;;;;;;-0.73;100.00;99545.13;1713253;82;20987;-82
2022/11/13 03:58:54;;;;;;;61.90;27.37;;;;;;;-0.69;100.00;99545.61;1712490;82;21423;-84
2022/11/13 04:01:21;;;;;;;48.87;27.22;;;;;;;-0.69;100.00;99548.27;1712695;83;21010;-84
2022/11/13 04:03:48;;;;;;;56.35;28.47;;;;;;;-0.69;100.00;99548.27;1712494;82;21065;-81
2022/11/13 04:06:15;;;;;;;54.77;26.45;;;;;;;-0.70;100.00;99542.11;1712531;83;20986;-82
2022/11/13 04:08:42;;;;;;;56.05;26.50;;;;;;;-0.65;100.00;99543.78;1712737;82;21454;-80
2022/11/13 04:11:11;;;;;;;61.05;28.02;;;;;;;-0.65;100.00;99545.61;1714405;83;21014;-84
2022/11/13 04:13:38;;;;;;;57.30;27.42;;;;;;;-0.64;100.00;99546.77;1714049;82;21578;-81
2022/11/13 04:16:05;;;;;;;58.17;29.27;;;;;;;-0.59;100.00;99552.42;1714170;83;20974;-80
2022/11/13 04:18:32;;;;;;;65.05;31.60;;;;;;;-0.56;100.00;99551.24;1714115;82;21006;-84
2022/11/13 04:21:01;;;;;;;56.98;28.55;;;;;;;-0.55;100.00;99545.41;1714216;83;20987;-83
2022/11/13 04:23:28;;;;;;;57.93;29.65;;;;;;;-0.52;100.00;99551.22;1713659;82;21447;-83
2022/11/13 04:25:55;;;;;;;56.02;26.93;;;;;;;-0.49;100.00;99544.73;1704114;83;22557;-84
2022/11/13 04:28:22;;;;;;;56.13;27.50;;;;;;;-0.46;100.00;99549.20;1703659;82;21006;-81
2022/11/13 04:30:49;;;;;;;58.75;28.73;;;;;;;-0.47;100.00;99544.06;1714261;83;21039;-81
2022/11/13 04:33:16;;;;;;;62.85;27.25;;;;;;;-0.46;100.00;99546.55;1703847;83;21488;-81
2022/11/13 04:35:44;;;;;;;54.38;27.82;;;;;;;-0.47;100.00;99534.73;1714242;83;20984;-84
2022/11/13 04:38:11;;;;;;;60.35;25.97;;;;;;;-0.48;100.00;99533.91;1714264;82;21447;-84
2022/11/13 04:40:39;;;;;;;55.98;27.62;;;;;;;-0.48;100.00;99532.58;1714105;82;20967;-81
2022/11/13 04:43:06;;;;;;;56.65;25.62;;;;;;;-0.48;100.00;99534.41;1714065;83;20976;-83
2022/11/13 04:45:33;;;;;;;53.38;25.43;;;;;;;-0.46;100.00;99529.73;1714176;83;20964;-84
2022/11/13 04:48:00;;;;;;;63.48;27.62;;;;;;;-0.52;100.00;99523.75;1714011;82;21015;-81
2022/11/13 04:50:27;;;;;;;61.25;28.55;;;;;;;-0.51;100.00;99529.41;1713836;83;21800;-84
2022/11/13 04:52:53;;;;;;;63.23;27.42;;;;;;;-0.52;100.00;99533.08;1714092;83;20935;-81
2022/11/13 04:55:20;;;;;;;63.10;29.40;;;;;;;-0.52;100.00;99533.91;1713881;83;20986;-81
2022/11/13 04:57:50;;;;;;;58.10;29.18;;;;;;;-0.51;100.00;99535.59;1713960;83;21026;-81
2022/11/13 05:00:16;;;;;;;83.72;35.98;;;;;;;-0.46;100.00;99536.39;1714234;82;26899;-81
2022/11/13 05:02:43;;;;;;;69.27;34.18;;;;;;;-0.41;100.00;99540.21;1714283;82;21443;-81
2022/11/13 05:05:10;;;;;;;76.70;37.05;;;;;;;-0.40;100.00;99535.20;1713983;83;20975;-81
2022/11/13 05:07:37;;;;;;;61.00;30.27;;;;;;;-0.37;100.00;99546.84;1713936;83;20972;-81
2022/11/13 05:10:05;;;;;;;62.88;29.48;;;;;;;-0.39;100.00;99551.52;1717882;83;21470;-82
2022/11/13 05:12:32;;;;;;;62.93;28.42;;;;;;;-0.44;100.00;99552.52;1719271;83;21036;-78
2022/11/13 05:14:58;;;;;;;67.82;28.30;;;;;;;-0.45;100.00;99554.86;1719225;83;21708;-78
2022/11/13 05:17:25;;;;;;;59.90;26.70;;;;;;;-0.41;100.00;99558.03;1719425;83;21518;-78
2022/11/13 05:19:52;;;;;;;57.13;27.42;;;;;;;-0.40;100.00;99559.69;1719179;83;21024;-78
2022/11/13 05:22:19;;;;;;;58.80;24.10;;;;;;;-0.38;100.00;99560.34;1719456;83;20972;-81
2022/11/13 05:24:46;;;;;;;46.98;22.93;;;;;;;-0.37;100.00;99560.16;1719316;82;20957;-81
2022/11/13 05:27:13;;;;;;;48.87;23.62;;;;;;;-0.35;100.00;99565.31;1719458;83;20964;-81
2022/11/13 05:29:40;;;;;;;48.92;23.50;;;;;;;-0.35;100.00;99559.98;1719332;83;21045;-79
2022/11/13 05:32:07;;;;;;;45.03;21.93;;;;;;;-0.38;100.00;99557.67;1716095;83;21456;-81
2022/11/13 05:34:33;;;;;;;51.98;23.40;;;;;;;-0.41;100.00;99556.19;1714154;83;20968;-82
2022/11/13 05:37:00;;;;;;;50.98;24.60;;;;;;;-0.42;100.00;99557.70;1714479;83;21050;-81
2022/11/13 05:39:27;;;;;;;43.80;22.22;;;;;;;-0.44;100.00;99559.18;1713814;83;21020;-81
2022/11/13 05:41:54;;;;;;;51.60;25.05;;;;;;;-0.43;100.00;99556.84;1714124;83;21019;-81
2022/11/13 05:44:21;;;;;;;43.13;21.40;;;;;;;-0.43;100.00;99557.34;1714079;83;20991;-81
2022/11/13 05:46:48;;;;;;;44.42;20.97;;;;;;;-0.43;100.00;99556.84;1714412;83;21042;-78
2022/11/13 05:49:15;;;;;;;38.53;20.52;;;;;;;-0.41;100.00;99561.52;1713966;83;21069;-82
2022/11/13 05:51:42;;;;;;;44.15;21.27;;;;;;;-0.47;100.00;99562.20;1714441;83;21890;-78
2022/11/13 05:54:09;;;;;;;43.83;20.43;;;;;;;-0.50;100.00;99549.23;1714088;83;21042;-78
2022/11/13 05:56:36;;;;;;;45.38;22.17;;;;;;;-0.52;100.00;99549.88;1714249;82;21034;-82
2022/11/13 05:59:03;;;;;;;45.38;22.58;;;;;;;-0.48;100.00;99551.22;1714054;83;21007;-81
2022/11/13 06:01:36;;;;;;;44.63;22.15;;;;;;;-0.46;100.00;99547.88;1704121;83;21081;-78
2022/11/13 06:04:04;;;;;;;44.00;22.60;;;;;;;-0.44;100.00;99540.53;1713841;83;21099;-81
2022/11/13 06:06:31;;;;;;;46.13;22.48;;;;;;;-0.38;100.00;99547.02;1713898;83;21003;-81
2022/11/13 06:09:00;;;;;;;45.85;22.93;;;;;;;-0.39;100.00;99548.02;1715418;82;21448;-80
2022/11/13 06:11:28;;;;;;;38.60;21.33;;;;;;;-0.37;100.00;99544.17;1719434;83;20980;-78
2022/11/13 06:13:55;;;;;;;41.58;19.65;;;;;;;-0.34;100.00;99540.36;1719613;83;21544;-81
2022/11/13 06:16:34;;;;;;;42.48;21.95;;;;;;;-0.35;100.00;99535.50;1719421;83;21769;-81
2022/11/13 06:19:02;;;;;;;41.65;18.48;;;;;;;-0.36;100.00;99541.84;1719023;83;27368;-77
2022/11/13 06:21:31;;;;;;;40.52;18.65;;;;;;;-0.31;100.00;99548.00;1719588;83;20979;-78
2022/11/13 06:23:59;;;;;;;;;;;;;;;-0.32;100.00;99545.84;1721708;82;20997;-82
2022/11/13 06:26:28;;;;;;;47.27;23.95;;;;;;;-0.33;100.00;99540.69;1719332;83;20434;-81
2022/11/13 06:28:55;;;;;;;39.95;19.73;;;;;;;-0.30;100.00;99541.16;1719113;83;21071;-78
2022/11/13 06:31:25;;;;;;;51.35;20.75;;;;;;;-0.25;100.00;99547.81;1693565;83;20995;-81
2022/11/13 06:33:52;;;;;;;45.10;21.33;;;;;;;-0.27;100.00;99543.14;1713678;82;21460;-82
2022/11/13 06:36:25;;;;;;;59.20;27.75;;;;;;;-0.24;100.00;99544.97;1714287;82;21038;-77
2022/11/13 06:38:52;;;;;;;65.30;32.70;;;;;;;-0.22;100.00;99547.46;1714017;82;21530;-82
2022/11/13 06:41:24;;;;;;;63.17;30.48;;;;;;;-0.19;100.00;99542.60;1714104;83;21035;-79
2022/11/13 06:43:51;;;;;;;62.62;29.18;;;;;;;-0.18;100.00;99545.59;1713945;83;21432;-81
2022/11/13 06:46:21;;;;;;;67.42;29.82;;;;;;;-0.19;100.00;99535.94;1714213;82;21014;-78
2022/11/13 06:48:48;;;;;;;60.63;30.92;;;;;;;-0.18;100.00;99528.27;1713857;83;21039;-78
2022/11/13 06:51:24;;;;;;;61.33;31.07;;;;;;;-0.18;100.00;99532.27;1714384;83;21458;-82
2022/11/13 06:53:51;;;;;;;56.77;30.70;;;;;;;-0.19;100.00;99528.45;1703977;83;20971;-78
2022/11/13 06:56:19;;;;;;;63.35;30.27;;;;;;;-0.24;100.00;99529.49;1714102;83;21427;-78
2022/11/13 06:58:45;;;;;;;61.75;34.27;;;;;;;-0.16;100.00;99522.29;1713996;82;21470;-78
2022/11/13 07:01:19;;;;;;;59.85;31.52;;;;;;;-0.13;100.00;99529.09;1714243;83;21051;-81
2022/11/13 07:03:46;;;;;;;57.15;29.67;;;;;;;-0.12;100.00;99526.75;1713904;82;21098;-82
2022/11/13 07:06:19;;;;;;;43.65;23.02;;;;;;;-0.07;100.00;99527.91;1714286;83;21549;-78
2022/11/13 07:08:46;;;;;;;43.60;20.43;;;;;;;-0.02;100.00;99526.03;1714837;83;21424;-81
2022/11/13 07:11:16;;;;;;;38.33;22.20;;;;;;;-0.03;100.00;99521.20;1719344;83;21024;-81
2022/11/13 07:13:43;;;;;;;38.10;20.05;;;;;;;-0.03;100.00;99517.20;1719109;83;21004;-81
2022/11/13 07:16:10;;;;;;;41.60;18.37;;;;;;;0.01;100.00;99515.04;1719121;83;21393;-81
2022/11/13 07:18:37;;;;;;;43.58;23.67;;;;;;;0.06;100.00;99517.98;1719068;83;21397;-78
2022/11/13 07:21:06;;;;;;;57.67;30.88;;;;;;;0.12;100.00;99525.29;1718973;83;20992;-81
2022/11/13 07:23:35;;;;;;;68.55;38.50;;;;;;;0.15;100.00;99520.10;1690722;83;21055;-78
2022/11/13 07:26:03;;;;;;;69.90;38.25;;;;;;;0.19;100.00;99514.77;1718955;83;21043;-82
2022/11/13 07:28:30;;;;;;;70.67;42.23;;;;;;;0.28;100.00;99519.86;1719258;83;20999;-78
2022/11/13 07:30:58;;;;;;;72.82;40.05;;;;;;;0.31;100.00;99514.66;1718060;83;21471;-79
2022/11/13 07:33:24;;;;;;;68.87;39.50;;;;;;;0.36;100.00;99513.64;1713914;83;21416;-81
2022/11/13 07:35:55;;;;;;;71.30;38.63;;;;;;;0.44;100.00;99514.91;1713955;83;21026;-82
2022/11/13 07:38:22;;;;;;;75.70;40.52;;;;;;;0.49;100.00;99509.03;1714000;83;20987;-81
2022/11/13 07:40:49;;;;;;;73.20;35.25;;;;;;;0.60;100.00;99507.77;1713918;82;21570;-81
2022/11/13 07:43:16;;;;;;;65.83;35.17;;;;;;;0.61;100.00;99504.95;1714013;82;21008;-82
2022/11/13 07:45:43;;;;;;;53.48;31.12;;;;;;;0.61;100.00;99506.28;1713997;83;20976;-82
2022/11/13 07:48:10;;;;;;;62.35;32.83;;;;;;;0.62;100.00;99503.11;1713100;83;21001;-81
2022/11/13 07:50:37;;;;;;;61.18;33.80;;;;;;;0.69;100.00;99500.88;1714020;83;20961;-78
2022/11/13 07:53:06;;;;;;;60.23;32.83;;;;;;;0.72;100.00;99500.50;1713998;82;21005;-81
2022/11/13 07:55:34;;;;;;;65.75;34.90;;;;;;;0.75;100.00;99502.80;1726690;82;21040;-77
2022/11/13 07:58:01;;;;;;;52.10;29.65;;;;;;;0.82;100.00;99505.59;1714022;82;21053;-82
2022/11/13 08:00:29;;;;;;;45.63;25.37;;;;;;;0.87;100.00;99507.22;1714036;82;21336;-78
2022/11/13 08:02:56;;;;;;;41.77;23.37;;;;;;;0.93;100.00;99506.47;1714249;82;21017;-78
2022/11/13 08:05:23;;;;;;;41.18;22.30;;;;;;;1.01;100.00;99501.05;1714114;83;21462;-81
2022/11/13 08:07:51;;;;;;;35.78;20.40;;;;;;;1.10;100.00;99509.30;1714064;83;21017;-78
2022/11/13 08:10:18;;;;;;;43.50;21.45;;;;;;;1.18;100.00;99507.56;1685236;82;21031;-78
2022/11/13 08:12:46;;;;;;;52.38;27.65;;;;;;;1.27;100.00;99503.28;1678452;85;21055;-78
2022/11/13 08:15:13;;;;;;;48.08;27.50;;;;;;;1.31;100.00;99500.59;1678342;85;21084;-81
2022/11/13 08:17:40;;;;;;;52.20;29.37;;;;;;;1.45;100.00;99505.59;1678402;85;21491;-81
2022/11/13 08:20:08;;;;;;;43.35;24.72;;;;;;;1.55;100.00;99503.99;1678224;85;21112;-82
2022/11/13 08:22:35;;;;;;;41.97;25.13;;;;;;;1.66;100.00;99507.02;1678437;85;21031;-82
2022/11/13 08:25:02;;;;;;;50.40;26.02;;;;;;;1.72;100.00;99505.96;1678427;85;21048;-81
2022/11/13 08:27:29;;;;;;;49.08;25.77;;;;;;;1.78;100.00;99502.52;1679702;85;20988;-78
2022/11/13 08:29:56;;;;;;;37.28;20.97;;;;;;;1.82;100.00;99499.30;1679744;85;21068;-81
2022/11/13 08:32:23;;;;;;;39.05;20.88;;;;;;;1.91;100.00;99495.50;1726664;81;21056;-78
2022/11/13 08:34:50;;;;;;;37.45;22.75;;;;;;;2.02;100.00;99492.01;1738659;82;21020;-78
2022/11/13 08:37:16;;;;;;;43.33;24.30;;;;;;;2.11;100.00;99493.55;1739030;81;20981;-82
2022/11/13 08:39:43;;;;;;;44.73;26.60;;;;;;;2.20;100.00;99495.91;1738849;82;21040;-78
2022/11/13 08:42:10;;;;;;;37.03;23.60;;;;;;;2.33;100.00;99496.56;1739021;81;20980;-81
2022/11/13 08:44:37;;;;;;;87.42;42.30;;;;;;;2.44;100.00;99500.06;1738996;82;21697;-78
2022/11/13 08:47:04;;;;;;;46.05;27.32;;;;;;;2.54;100.00;99501.90;1738929;82;21016;-82
2022/11/13 08:49:31;;;;;;;57.73;32.30;;;;;;;2.65;100.00;99503.73;1738952;82;21020;-82
2022/11/13 08:51:58;;;;;;;56.55;33.78;;;;;;;2.75;100.00;99506.42;1739095;82;21017;-82
2022/11/13 08:54:25;;;;;;;48.28;29.05;;;;;;;2.87;100.00;99503.22;1738609;81;20985;-81
2022/11/13 08:56:51;;;;;;;43.38;25.10;;;;;;;2.99;100.00;99497.63;1739037;82;21025;-78
2022/11/13 08:59:18;;;;;;;42.62;25.40;;;;;;;3.12;100.00;99495.06;1738735;81;20996;-82
2022/11/13 09:01:45;;;;;;;44.88;25.30;;;;;;;3.27;100.00;99494.95;1738580;82;21043;-82
2022/11/13 09:04:13;;;;;;;41.13;24.92;;;;;;;3.38;100.00;99494.40;1738760;81;21452;-82
2022/11/13 09:06:40;;;;;;;43.78;28.35;;;;;;;3.50;100.00;99497.34;1738890;82;20949;-78
2022/11/13 09:09:06;;;;;;;52.60;29.37;;;;;;;3.63;100.00;99497.42;1730321;81;21720;-82
2022/11/13 09:11:34;;;;;;;44.85;29.40;;;;;;;3.74;100.00;99490.14;1713899;83;21542;-82
2022/11/13 09:14:00;;;;;;;49.80;27.65;;;;;;;3.87;100.00;99489.38;1713952;83;20990;-82
2022/11/13 09:16:27;;;;;;;37.40;24.35;;;;;;;4.02;100.00;99491.41;1713982;83;20969;-82
2022/11/13 09:18:54;;;;;;;44.95;24.63;;;;;;;4.18;100.00;99483.48;1713989;83;20959;-82
2022/11/13 09:21:21;;;;;;;36.95;22.75;;;;;;;4.33;100.00;99485.99;1713971;83;21077;-79
2022/11/13 09:23:48;;;;;;;34.20;19.98;;;;;;;4.48;100.00;99479.94;1714042;83;21053;-78
2022/11/13 09:26:15;;;;;;;36.53;20.68;;;;;;;4.62;100.00;99468.19;1703817;83;20986;-78
2022/11/13 09:28:42;;;;;;;35.65;20.05;;;;;;;4.77;100.00;99464.75;1714000;83;21134;-79
2022/11/13 09:31:09;;;;;;;29.95;17.98;;;;;;;4.95;100.00;99457.92;1709826;82;20998;-82
2022/11/13 09:33:36;;;;;;;32.60;17.82;;;;;;;5.13;100.00;99463.99;1699098;84;21462;-79
2022/11/13 09:36:09;;;;;;;30.32;19.60;;;;;;;5.26;100.00;99451.88;1699123;83;20978;-79
2022/11/13 09:38:36;;;;;;;30.75;19.35;;;;;;;5.40;100.00;99456.20;1696401;84;21058;-79
2022/11/13 09:41:10;;;;;;;29.15;18.12;;;;;;;5.55;100.00;99454.06;1699158;84;21470;-82
2022/11/13 09:43:50;;;;;;;32.25;22.55;;;;;;;5.69;100.00;99449.47;1699209;83;21037;-83
2022/11/13 09:46:50;;;;;;;36.85;21.00;;;;;;;5.83;100.00;99448.38;1699130;84;21037;-78
2022/11/13 09:49:27;;;;;;;33.25;20.32;;;;;;;5.97;100.00;99442.95;1698946;84;21422;-82
2022/11/13 09:51:56;;;;;;;25.97;16.73;;;;;;;6.15;100.00;99435.83;1699025;84;21041;-79
2022/11/13 09:54:23;;;;;;;28.07;17.82;;;;;;;6.30;100.00;99440.06;1699043;83;27180;-79
2022/11/13 09:56:58;;;;;;;31.55;17.42;;;;;;;6.43;100.00;99442.16;1699055;83;21053;-79
2022/11/13 09:59:36;;;;;;;26.80;15.63;;;;;;;6.57;100.00;99441.52;1675513;84;21249;-83
2022/11/13 10:02:15;;;;;;;33.80;18.77;;;;;;;6.70;100.00;99433.34;1699112;84;21056;-82
2022/11/13 10:04:58;;;;;;;30.20;17.37;;;;;;;6.84;100.00;99431.37;1698028;84;20990;-82
2022/11/13 10:08:03;;;;;;;41.90;24.25;;;;;;;6.98;100.00;99425.31;1699307;84;21132;-79
2022/11/13 10:10:52;;;;;;;42.25;25.85;;;;;;;7.25;100.00;99428.56;1712613;83;20961;-79
2022/11/13 10:13:24;;;;;;;41.63;25.45;;;;;;;7.53;100.00;99434.80;1714284;82;21033;-79
2022/11/13 10:15:54;;;;;;;39.53;21.20;;;;;;;7.78;100.00;99427.96;1709813;83;21052;-79
2022/11/13 10:18:25;;;;;;;32.25;19.98;;;;;;;8.02;100.00;99423.47;1714307;82;21036;-79
2022/11/13 10:20:56;;;;;;;34.60;20.08;;;;;;;8.15;100.00;99423.30;1704055;83;21002;-79
2022/11/13 10:23:31;;;;;;;27.55;17.77;;;;;;;8.27;100.00;99415.22;1714117;83;21052;-83
2022/11/13 10:26:18;;;;;;;32.98;21.45;;;;;;;8.43;100.00;99414.59;1714223;82;21175;-83
2022/11/13 10:28:48;;;;;;;33.95;23.18;;;;;;;8.55;100.00;99407.88;1714390;82;21045;-83
2022/11/13 10:31:44;;;;;;;37.38;21.77;;;;;;;8.63;100.00;99397.55;1708712;83;21033;-82
2022/11/13 10:34:12;;;;;;;34.50;21.17;;;;;;;8.71;100.00;99390.94;1699247;83;20963;-82
2022/11/13 10:37:03;;;;;;;42.17;23.55;;;;;;;8.82;100.00;99391.50;1699166;84;21049;-79
2022/11/13 10:39:34;;;;;;;31.77;19.55;;;;;;;8.87;100.00;99392.95;1699276;84;21809;-79
2022/11/13 10:42:01;;;;;;;31.10;19.85;;;;;;;8.97;100.00;99395.06;1698242;84;21290;-82
2022/11/13 10:44:31;;;;;;;43.30;23.10;;;;;;;9.05;100.00;99385.23;1699181;84;21017;-82
2022/11/13 10:47:12;;;;;;;41.68;22.75;;;;;;;9.13;100.00;99382.70;1699100;84;21030;-79
2022/11/13 10:49:39;;;;;;;26.87;18.32;;;;;;;9.20;100.00;99378.82;1699199;84;20967;-80
2022/11/13 10:52:27;;;;;;;31.97;19.62;;;;;;;9.30;100.00;99380.92;1679147;84;20989;-82
2022/11/13 10:55:18;;;;;;;29.75;17.60;;;;;;;9.43;100.00;99383.91;1699157;83;21041;-83
2022/11/13 10:57:55;;;;;;;37.42;20.70;;;;;;;9.52;100.00;99383.28;1694339;84;20982;-83
2022/11/13 11:00:31;;;;;;;33.02;19.85;;;;;;;9.58;100.00;99379.62;1699180;84;21493;-79
2022/11/13 11:02:58;;;;;;;32.10;21.30;;;;;;;9.63;100.00;99372.66;1699223;84;21069;-79
2022/11/13 11:05:25;;;;;;;33.02;20.23;;;;;;;9.66;100.00;99373.02;1699219;83;21628;-79
2022/11/13 11:07:55;;;;;;;31.77;17.85;;;;;;;9.74;100.00;99367.23;1699095;83;21062;-83
2022/11/13 11:10:31;;;;;;;31.45;19.15;;;;;;;9.86;100.00;99370.69;1710695;83;21022;-78
2022/11/13 11:13:06;;;;;;;61.75;32.08;;;;;;;9.96;100.00;99370.59;1711038;82;21503;-83
2022/11/13 11:15:49;;;;;;;74.10;35.40;;;;;;;10.04;100.00;99374.27;1711618;83;21133;-79
2022/11/13 11:18:23;;;;;;;52.98;29.35;;;;;;;10.11;100.00;99368.16;1712635;82;21085;-82
2022/11/13 11:21:00;;;;;;;34.58;21.07;;;;;;;10.15;100.00;99368.77;1712602;83;21034;-83